Time;durP1;ratioP1;P1;durP2;ratioP2;P2;SDS_P1;SDS_P2;PMS_P1;PMS_P2;Temp;Humidity;BMP_temperature;BMP_pressure;BME280_temperature;BME280_humidity;BME280_pressure;Samples;Min_cycle;Max_cycle;Signal;HPM_P1;HPM_P2
2022/04/27 00:03:39;;;;;;;270.33;257.45;;;;;;;6.16;100.00;102299.00;10546029;28;20059;-63
2022/04/27 00:08:42;;;;;;;276.25;263.48;;;;;;;6.02;100.00;102292.25;10545863;28;20055;-63
2022/04/27 00:13:44;;;;;;;286.33;273.15;;;;;;;5.93;100.00;102293.22;10546309;28;20044;-63
2022/04/27 00:18:46;;;;;;;288.58;275.05;;;;;;;5.83;100.00;102293.34;10546177;28;20048;-63
2022/04/27 00:23:49;;;;;;;298.63;284.65;;;;;;;5.71;100.00;102295.22;10545224;28;20055;-63
2022/04/27 00:28:51;;;;;;;297.40;283.10;;;;;;;5.68;100.00;102291.78;10545163;28;20060;-63
2022/04/27 00:33:54;;;;;;;300.63;286.38;;;;;;;5.57;100.00;102294.53;10543786;28;20483;-63
2022/04/27 00:38:56;;;;;;;293.80;279.95;;;;;;;5.42;100.00;102295.59;10544234;28;20048;-63
2022/04/27 00:43:58;;;;;;;300.65;286.65;;;;;;;5.44;100.00;102295.56;10544354;28;20059;-63
2022/04/27 00:49:01;;;;;;;309.05;294.02;;;;;;;5.41;100.00;102299.06;10542959;28;20047;-63
2022/04/27 00:54:03;;;;;;;296.77;282.63;;;;;;;5.22;100.00;102291.47;10544079;28;20044;-63
2022/04/27 00:59:06;;;;;;;297.42;283.27;;;;;;;5.28;100.00;102303.53;10543416;28;20052;-63
2022/04/27 01:04:08;;;;;;;298.45;284.50;;;;;;;5.26;100.00;102304.44;10542502;28;20122;-63
2022/04/27 01:09:12;;;;;;;288.98;275.17;;;;;;;5.07;100.00;102309.81;10542303;28;20048;-63
2022/04/27 01:14:14;;;;;;;295.67;281.67;;;;;;;5.12;100.00;102309.78;10542729;28;20047;-63
2022/04/27 01:19:17;;;;;;;291.52;277.73;;;;;;;5.01;100.00;102317.69;10543040;28;20510;-63
2022/04/27 01:24:25;;;;;;;285.65;272.38;;;;;;;4.84;100.00;102323.00;10543426;28;20048;-63
2022/04/27 01:29:28;;;;;;;283.25;269.88;;;;;;;4.94;100.00;102316.88;10542189;28;20052;-63
2022/04/27 01:34:30;;;;;;;290.45;276.85;;;;;;;4.89;100.00;102320.38;10543109;28;20048;-63
2022/04/27 01:39:35;;;;;;;265.63;253.10;;;;;;;4.88;100.00;102316.94;10541669;28;20079;-63
2022/04/27 01:44:38;;;;;;;267.30;254.68;;;;;;;5.01;100.00;102328.06;10541963;28;20051;-63
2022/04/27 01:49:41;;;;;;;247.20;235.30;;;;;;;4.72;100.00;102323.13;10542482;28;20050;-63
2022/04/27 01:54:43;;;;;;;237.30;225.63;;;;;;;4.69;100.00;102320.53;10542252;28;20044;-63
2022/04/27 01:59:46;;;;;;;213.95;203.60;;;;;;;4.63;100.00;102324.06;10524203;28;20047;-63
2022/04/27 02:04:49;;;;;;;221.93;211.13;;;;;;;4.63;100.00;102332.69;10541268;28;20048;-63
2022/04/27 02:09:51;;;;;;;224.90;214.18;;;;;;;4.77;100.00;102331.72;10541735;28;20056;-63
2022/04/27 02:14:53;;;;;;;190.57;181.10;;;;;;;4.58;100.00;102349.19;10541564;28;20058;-63
2022/04/27 02:19:55;;;;;;;191.10;181.85;;;;;;;4.53;100.00;102343.16;10540189;28;20044;-63
2022/04/27 02:24:58;;;;;;;163.00;154.73;;;;;;;4.28;100.00;102351.97;10541268;28;20052;-63
2022/04/27 02:30:00;;;;;;;155.07;147.15;;;;;;;4.38;100.00;102357.09;10541105;28;20050;-63
2022/04/27 02:35:04;;;;;;;136.82;129.82;;;;;;;4.28;100.00;102357.16;10540949;28;20044;-64
2022/04/27 02:40:09;;;;;;;126.28;119.68;;;;;;;4.35;100.00;102362.31;10538719;28;20500;-63
2022/04/27 02:45:11;;;;;;;104.15;98.60;;;;;;;4.20;100.00;102377.09;10538931;28;20052;-63
2022/04/27 02:55:35;;;;;;;88.63;84.13;;;;;;;4.05;100.00;102372.84;10540459;28;20044;-63
2022/04/27 03:00:37;;;;;;;91.85;87.20;;;;;;;4.23;100.00;102368.44;10540215;28;20048;-63
2022/04/27 03:05:40;;;;;;;72.95;68.60;;;;;;;4.16;100.00;102379.72;10540215;28;20044;-64
2022/04/27 03:10:43;;;;;;;74.45;70.22;;;;;;;4.12;100.00;102376.28;10544870;28;20044;-63
2022/04/27 03:15:45;;;;;;;64.00;60.40;;;;;;;4.00;100.00;102384.09;10548633;28;20055;-63
2022/04/27 03:20:49;;;;;;;69.03;65.20;;;;;;;4.07;100.00;102386.66;10547259;28;20078;-63
2022/04/27 03:25:51;;;;;;;66.47;62.95;;;;;;;4.07;100.00;102391.84;10548332;28;20051;-63
2022/04/27 03:30:54;;;;;;;40.88;38.33;;;;;;;4.00;100.00;102389.28;10548072;28;20040;-63
2022/04/27 03:35:56;;;;;;;38.45;35.83;;;;;;;3.89;100.00;102392.78;10547891;28;20048;-63
2022/04/27 03:40:59;;;;;;;41.20;38.38;;;;;;;3.92;100.00;102391.91;10547172;28;20058;-63
2022/04/27 03:46:01;;;;;;;25.95;23.65;;;;;;;3.82;100.00;102391.09;10546839;28;20518;-63
2022/04/27 03:51:04;;;;;;;25.85;24.25;;;;;;;3.91;100.00;102397.94;10546118;28;20044;-63
2022/04/27 03:56:06;;;;;;;22.23;20.70;;;;;;;3.83;100.00;102402.28;10547110;28;20055;-63
2022/04/27 04:01:09;;;;;;;19.60;17.80;;;;;;;3.78;100.00;102393.69;10546185;28;20395;-63
2022/04/27 04:06:11;;;;;;;15.60;14.07;;;;;;;3.79;100.00;102401.44;10544970;28;20142;-63
2022/04/27 04:11:13;;;;;;;20.77;19.20;;;;;;;3.88;100.00;102403.16;10544770;28;20052;-63
2022/04/27 04:16:16;;;;;;;16.73;15.38;;;;;;;3.66;100.00;102400.63;10545352;28;20052;-63
2022/04/27 04:21:18;;;;;;;20.77;19.05;;;;;;;3.71;100.00;102409.25;10543524;28;20044;-63
2022/04/27 04:31:42;;;;;;;22.67;16.80;;;;;;;3.73;100.00;102417.00;10545189;28;20048;-63
2022/04/27 04:36:44;;;;;;;19.23;16.45;;;;;;;3.75;100.00;102423.06;10543681;28;20520;-63
2022/04/27 04:41:47;;;;;;;15.98;12.35;;;;;;;3.82;100.00;102426.50;10544920;28;20059;-63
2022/04/27 04:46:49;;;;;;;12.68;10.52;;;;;;;3.78;100.00;102432.53;10544512;28;20487;-63
2022/04/27 04:51:51;;;;;;;13.15;11.77;;;;;;;3.99;100.00;102440.25;10544897;28;20059;-63
2022/04/27 04:56:54;;;;;;;13.63;11.15;;;;;;;3.90;100.00;102445.44;10544730;28;20058;-63
2022/04/27 05:01:56;;;;;;;19.90;11.30;;;;;;;4.07;100.00;102454.06;10544459;28;20047;-63
2022/04/27 05:06:59;;;;;;;15.38;11.55;;;;;;;4.14;100.00;102459.22;10543692;28;20491;-63
2022/04/27 05:12:01;;;;;;;13.98;10.52;;;;;;;4.21;100.00;102461.75;10544160;28;20055;-63
2022/04/27 05:17:04;;;;;;;13.70;12.25;;;;;;;4.24;100.00;102466.09;10543283;28;20487;-63
2022/04/27 05:22:06;;;;;;;12.05;10.75;;;;;;;4.47;100.00;102469.44;10542972;28;20445;-63
2022/04/27 05:27:09;;;;;;;15.32;12.57;;;;;;;4.59;100.00;102478.00;10543471;28;20047;-63
2022/04/27 05:32:12;;;;;;;15.30;13.63;;;;;;;4.64;100.00;102484.06;10542245;28;20403;-63
2022/04/27 05:37:14;;;;;;;15.43;13.82;;;;;;;4.82;100.00;102491.72;10541930;28;20048;-63
2022/04/27 05:42:17;;;;;;;22.13;20.20;;;;;;;5.00;100.00;102492.47;10542400;28;20059;-64
2022/04/27 05:47:20;;;;;;;27.33;24.95;;;;;;;5.29;100.00;102492.25;10540915;28;20487;-63
2022/04/27 05:52:22;;;;;;;26.88;24.95;;;;;;;5.55;100.00;102493.78;10542569;28;20060;-63
2022/04/27 05:57:24;;;;;;;25.13;22.77;;;;;;;5.76;100.00;102496.13;10540473;28;20048;-64
2022/04/27 06:02:28;;;;;;;34.33;31.38;;;;;;;5.72;100.00;102497.06;10542018;28;20050;-64
2022/04/27 06:07:34;;;;;;;48.35;44.25;;;;;;;6.02;100.00;102517.56;10541384;28;20509;-64
2022/04/27 06:12:44;;;;;;;17.38;15.63;;;;;;;6.13;100.00;102518.31;10541142;28;20418;-63
2022/04/27 06:17:47;;;;;;;20.58;15.90;;;;;;;5.91;100.00;102526.31;10541620;28;20058;-63
2022/04/27 06:22:49;;;;;;;20.98;18.20;;;;;;;6.37;100.00;102526.72;10541347;28;20048;-63
2022/04/27 06:27:51;;;;;;;21.13;17.58;;;;;;;6.43;100.00;102529.25;10523272;28;20043;-63
2022/04/27 06:32:54;;;;;;;30.45;21.25;;;;;;;6.74;100.00;102531.44;10539240;28;20399;-64
2022/04/27 06:37:56;;;;;;;29.95;27.35;;;;;;;6.84;100.00;102531.31;10540260;28;20079;-63
2022/04/27 06:42:58;;;;;;;22.83;18.80;;;;;;;7.10;100.00;102537.03;10539405;28;20399;-63
2022/04/27 06:48:01;;;;;;;16.33;12.82;;;;;;;7.13;100.00;102537.84;10539995;28;20479;-63
2022/04/27 06:53:04;;;;;;;17.02;14.70;;;;;;;7.48;100.00;102552.06;10540438;28;20047;-64
2022/04/27 06:58:06;;;;;;;22.58;12.60;;;;;;;7.35;100.00;102558.38;10540326;28;20054;-64
2022/04/27 07:03:09;;;;;;;15.18;13.35;;;;;;;7.75;100.00;102558.56;10538977;28;20054;-64
2022/04/27 07:08:12;;;;;;;19.92;13.95;;;;;;;8.15;99.80;102557.84;10540141;28;20113;-64
2022/04/27 07:13:14;;;;;;;24.73;17.85;;;;;;;8.98;92.33;102557.00;10539986;28;20054;-63
2022/04/27 07:18:16;;;;;;;26.58;24.67;;;;;;;9.44;91.45;102554.19;10538749;28;20052;-63
2022/04/27 07:23:19;;;;;;;113.65;107.20;;;;;;;9.94;84.39;102553.78;10539791;28;20040;-64
2022/04/27 07:28:21;;;;;;;174.27;165.35;;;;;;;10.66;83.19;102564.03;10539714;28;20048;-63
2022/04/27 07:33:24;;;;;;;331.08;315.50;;;;;;;10.91;76.95;102566.78;10539604;28;20044;-64
2022/04/27 07:38:29;;;;;;;305.85;291.15;;;;;;;11.67;80.11;102567.84;10537856;28;20545;-64
2022/04/27 07:43:31;;;;;;;379.00;360.75;;;;;;;11.64;77.75;102578.44;10537481;28;20060;-64
2022/04/27 07:48:33;;;;;;;408.50;388.27;;;;;;;11.10;70.98;102576.69;10538668;28;20055;-64
2022/04/27 07:53:36;;;;;;;418.55;398.02;;;;;;;12.30;70.20;102583.19;10539273;28;20051;-64
2022/04/27 07:58:38;;;;;;;373.95;356.15;;;;;;;11.65;65.94;102587.16;10546419;28;20048;-64
2022/04/27 08:03:43;;;;;;;355.27;338.25;;;;;;;12.82;65.16;102590.91;10546133;28;20044;-64
2022/04/27 08:08:46;;;;;;;331.27;315.50;;;;;;;12.72;63.57;102579.88;10546678;28;20234;-64
2022/04/27 08:13:48;;;;;;;278.05;264.95;;;;;;;12.57;61.24;102585.72;10544790;28;20044;-64
2022/04/27 08:18:51;;;;;;;282.10;268.67;;;;;;;14.05;59.38;102579.78;10546221;28;20063;-64
2022/04/27 08:23:54;;;;;;;148.80;141.48;;;;;;;13.47;53.84;102598.91;10545988;28;20044;-64
2022/04/27 08:28:56;;;;;;;161.35;153.38;;;;;;;14.16;55.45;102597.78;10544689;28;20044;-64
2022/04/27 08:33:58;;;;;;;101.40;96.20;;;;;;;14.66;52.63;102599.94;10545591;28;20051;-64
2022/04/27 08:39:02;;;;;;;48.97;46.13;;;;;;;13.04;52.73;102604.06;10543690;28;20510;-64
2022/04/27 08:44:07;;;;;;;84.60;80.20;;;;;;;14.82;52.86;102602.72;10543248;28;20052;-64
2022/04/27 08:49:09;;;;;;;59.58;56.65;;;;;;;14.25;51.52;102598.19;10545725;28;20072;-64
2022/04/27 08:54:12;;;;;;;57.03;53.55;;;;;;;15.26;53.04;102602.38;10544268;28;20052;-64
2022/04/27 08:59:14;;;;;;;31.45;29.48;;;;;;;14.04;52.28;102607.06;10519718;22;20064;-67
2022/04/27 09:04:18;;;;;;;42.92;40.53;;;;;;;15.84;51.89;102611.03;10502585;28;20045;-67
2022/04/27 09:09:39;;;;;;;23.35;21.63;;;;;;;14.92;50.43;102611.91;10501735;28;20074;-67
2022/04/27 09:14:44;;;;;;;26.30;25.00;;;;;;;15.15;53.58;102615.25;10500501;28;20411;-64
2022/04/27 09:25:07;;;;;;;8.77;8.07;;;;;;;14.43;50.20;102604.44;10501109;28;20396;-67
2022/04/27 09:30:11;;;;;;;10.02;7.00;;;;;;;15.68;49.34;102619.66;10501505;28;20049;-65
2022/04/27 09:35:13;;;;;;;7.75;6.95;;;;;;;16.10;48.78;102612.31;10501328;28;20094;-65
2022/04/27 09:40:16;;;;;;;5.20;4.70;;;;;;;17.31;46.08;102612.78;10499971;28;20131;-65
2022/04/27 09:45:20;;;;;;;5.15;4.32;;;;;;;17.81;47.10;102608.16;10500140;28;20051;-66
2022/04/27 09:50:23;;;;;;;6.75;3.63;;;;;;;18.19;44.24;102613.00;10499523;28;20085;-66
2022/04/27 09:55:26;;;;;;;5.97;3.25;;;;;;;18.19;44.83;102613.84;10498394;28;20509;-65
2022/04/27 10:00:30;;;;;;;6.47;3.10;;;;;;;18.40;43.41;102604.66;10499743;28;20392;-66
2022/04/27 10:05:32;;;;;;;4.05;3.47;;;;;;;18.28;46.76;102612.41;10498875;28;20045;-65
2022/04/27 10:10:39;;;;;;;7.28;4.30;;;;;;;17.44;41.34;102615.59;10499218;28;20052;-65
2022/04/27 10:15:46;;;;;;;3.60;3.22;;;;;;;19.26;42.29;102604.50;10499128;28;20357;-65
2022/04/27 10:20:51;;;;;;;5.47;3.25;;;;;;;20.45;41.33;102613.25;10498883;28;20488;-66
2022/04/27 10:26:07;;;;;;;4.75;3.45;;;;;;;18.37;42.77;102600.38;10498163;28;20054;-65
2022/04/27 10:31:10;;;;;;;3.75;3.20;;;;;;;16.17;45.80;102603.13;10498109;28;20049;-65
2022/04/27 10:36:22;;;;;;;3.85;3.17;;;;;;;19.07;41.78;102596.91;10499012;28;20056;-65
2022/04/27 10:41:24;;;;;;;3.95;3.45;;;;;;;19.33;40.94;102599.63;10498796;28;20045;-65
2022/04/27 10:46:41;;;;;;;6.97;4.60;;;;;;;20.91;40.24;102599.34;10498189;28;20435;-66
2022/04/27 10:52:05;;;;;;;5.70;3.95;;;;;;;18.33;41.79;102599.72;10498886;28;20048;-65
2022/04/27 10:57:17;;;;;;;11.88;10.85;;;;;;;16.81;44.93;102605.88;10496798;28;20491;-65
2022/04/27 11:02:39;;;;;;;4.88;3.88;;;;;;;19.37;40.24;102604.66;10498454;28;20044;-65
2022/04/27 11:08:06;;;;;;;5.18;4.68;;;;;;;18.48;44.31;102600.56;10498408;28;20082;-65
2022/04/27 11:13:08;;;;;;;6.78;4.35;;;;;;;17.40;44.27;102608.75;10498379;28;20045;-65
2022/04/27 11:18:12;;;;;;;4.82;3.88;;;;;;;18.41;44.02;102595.72;10498111;28;20060;-65
2022/04/27 11:23:22;;;;;;;15.15;5.85;;;;;;;18.82;41.70;102592.28;10480436;28;20052;-65
2022/04/27 11:28:26;;;;;;;10.00;6.60;;;;;;;20.48;38.36;102591.78;10498027;28;20056;-66
2022/04/27 11:33:30;;;;;;;8.13;5.18;;;;;;;21.43;41.03;102591.09;10504068;28;20432;-66
2022/04/27 11:38:37;;;;;;;7.50;5.70;;;;;;;20.17;41.53;102585.09;10505987;28;20055;-66
2022/04/27 11:43:39;;;;;;;9.88;8.43;;;;;;;20.64;38.33;102583.56;10505086;28;20051;-65
2022/04/27 11:48:47;;;;;;;11.55;10.65;;;;;;;21.09;36.90;102573.16;10504917;28;20052;-66
2022/04/27 11:53:50;;;;;;;11.75;10.85;;;;;;;20.92;39.18;102581.56;10503581;28;20476;-66
2022/04/27 11:59:07;;;;;;;10.38;9.60;;;;;;;21.51;36.59;102588.75;10504400;28;20067;-66
2022/04/27 12:04:11;;;;;;;10.45;9.63;;;;;;;22.81;37.02;102568.78;10504053;28;20044;-66
2022/04/27 12:09:17;;;;;;;9.20;8.45;;;;;;;22.44;38.23;102569.09;10504606;28;20048;-65
2022/04/27 12:14:20;;;;;;;20.45;19.13;;;;;;;22.50;36.00;102573.13;10503427;28;20044;-66
2022/04/27 12:19:28;;;;;;;27.08;25.42;;;;;;;22.55;33.73;102568.25;10503682;28;20056;-66
2022/04/27 12:24:43;;;;;;;50.47;47.53;;;;;;;20.47;36.26;102567.94;10504116;28;20049;-66
2022/04/27 12:29:46;;;;;;;25.92;24.38;;;;;;;24.03;34.11;102558.63;10503968;28;20059;-66
2022/04/27 12:40:13;;;;;;;21.67;19.85;;;;;;;18.11;41.05;102563.09;10503159;28;20056;-65
2022/04/27 12:45:16;;;;;;;16.48;15.32;;;;;;;17.90;42.11;102567.03;10502739;28;20049;-65
2022/04/27 12:50:19;;;;;;;12.77;11.88;;;;;;;20.36;39.73;102556.25;10503275;28;20044;-65
2022/04/27 12:55:21;;;;;;;19.58;18.48;;;;;;;22.86;35.70;102550.56;10502305;28;20135;-66
2022/04/27 13:00:38;;;;;;;73.38;68.00;;;;;;;19.88;39.84;102549.91;10502803;28;20044;-66
2022/04/27 13:05:42;;;;;;;18.00;16.65;;;;;;;19.23;39.91;102551.59;10502645;28;20052;-65
2022/04/27 13:16:06;;;;;;;17.50;16.30;;;;;;;19.45;39.81;102535.94;10502294;28;20048;-65
2022/04/27 13:21:08;;;;;;;27.63;25.98;;;;;;;19.84;36.31;102536.00;10484413;28;20135;-66
2022/04/27 13:26:11;;;;;;;27.98;26.08;;;;;;;20.74;36.01;102526.03;10501117;28;20498;-66
2022/04/27 13:31:13;;;;;;;21.73;20.20;;;;;;;19.11;39.98;102516.97;10501616;28;20566;-66
2022/04/27 13:36:15;;;;;;;26.33;24.60;;;;;;;21.82;36.34;102509.06;10501343;28;20132;-66
2022/04/27 13:41:18;;;;;;;33.70;31.83;;;;;;;21.71;36.00;102510.78;10501069;28;20059;-66
2022/04/27 13:46:20;;;;;;;33.25;31.27;;;;;;;20.76;36.44;102513.50;10499798;28;20056;-66
2022/04/27 13:51:23;;;;;;;31.85;30.05;;;;;;;22.08;34.90;102515.03;10500677;28;20135;-66
2022/04/27 13:56:26;;;;;;;31.45;29.85;;;;;;;20.97;36.87;102521.69;10499595;28;20110;-66
2022/04/27 14:01:28;;;;;;;34.42;32.72;;;;;;;22.15;34.79;102505.56;10499712;28;20481;-66
2022/04/27 14:06:31;;;;;;;37.80;35.75;;;;;;;21.74;36.18;102506.16;10498367;28;20080;-66
2022/04/27 14:22:15;;;;;;;;;;;;;;;19.12;35.17;102497.41;10499073;28;20040;-66
2022/04/27 14:27:17;;;;;;;42.85;40.72;;;;;;;19.81;38.42;102489.22;10499490;28;19927;-66
2022/04/27 14:32:20;;;;;;;40.33;38.35;;;;;;;21.91;35.60;102476.38;10499329;28;20051;-66
2022/04/27 14:37:22;;;;;;;47.95;45.40;;;;;;;19.81;37.23;102486.56;10499198;28;20060;-66
2022/04/27 14:42:24;;;;;;;37.97;35.72;;;;;;;20.89;36.15;102494.78;10497852;28;20044;-66
2022/04/27 14:47:27;;;;;;;53.55;50.70;;;;;;;21.14;33.01;102480.47;10498902;28;20059;-66
2022/04/27 14:52:30;;;;;;;66.22;62.72;;;;;;;20.27;35.83;102484.25;10497621;28;20047;-66
2022/04/27 14:57:33;;;;;;;52.55;49.80;;;;;;;22.45;33.28;102466.75;10496735;28;20061;-66
2022/04/27 15:02:36;;;;;;;51.33;48.83;;;;;;;21.48;36.09;102482.38;10498538;28;20132;-66
2022/04/27 15:07:38;;;;;;;94.63;89.43;;;;;;;18.65;36.11;102480.13;10497090;28;20514;-66
2022/04/27 15:12:41;;;;;;;50.65;47.85;;;;;;;19.59;37.42;102475.69;10498383;28;20045;-66
2022/04/27 15:17:43;;;;;;;60.70;57.72;;;;;;;21.18;35.50;102478.41;10497645;28;20056;-66
2022/04/27 15:22:45;;;;;;;53.53;50.50;;;;;;;20.05;35.07;102483.13;10498088;28;20055;-66
2022/04/27 15:27:48;;;;;;;51.20;48.63;;;;;;;20.25;37.27;102480.84;10496866;28;20060;-66
2022/04/27 15:32:50;;;;;;;59.45;56.55;;;;;;;20.59;35.25;102484.56;10496219;28;20451;-66
2022/04/27 15:37:56;;;;;;;45.97;43.63;;;;;;;20.36;36.89;102480.94;10497852;28;20052;-66
2022/04/27 15:43:03;;;;;;;55.13;51.97;;;;;;;18.17;38.99;102480.53;10497765;28;20051;-66
2022/04/27 15:48:27;;;;;;;59.60;56.28;;;;;;;18.85;40.08;102481.50;10496676;28;20060;-66
2022/04/27 15:53:29;;;;;;;34.15;32.38;;;;;;;18.64;38.76;102486.38;10497543;28;20059;-66
2022/04/27 15:58:33;;;;;;;25.73;24.13;;;;;;;17.77;41.86;102477.69;10496914;28;20061;-66
2022/04/27 16:03:36;;;;;;;20.25;19.15;;;;;;;18.05;42.50;102475.97;10497336;28;20057;-65
2022/04/27 16:08:39;;;;;;;23.00;21.67;;;;;;;18.33;42.06;102482.22;10497164;28;20048;-65
2022/04/27 16:13:41;;;;;;;32.88;31.00;;;;;;;17.58;42.39;102477.09;10497278;28;20049;-65
2022/04/27 16:18:47;;;;;;;20.50;18.92;;;;;;;17.47;42.54;102485.69;10503168;28;20056;-65
2022/04/27 16:23:50;;;;;;;13.07;12.13;;;;;;;18.45;43.07;102486.72;10504319;28;20045;-66
2022/04/27 16:28:55;;;;;;;13.98;12.77;;;;;;;17.17;45.51;102496.31;10502377;28;20515;-65
2022/04/27 16:33:57;;;;;;;9.38;8.70;;;;;;;18.00;46.10;102494.84;10503947;28;20051;-65
2022/04/27 16:38:59;;;;;;;9.02;7.95;;;;;;;17.38;46.36;102502.97;10503773;28;20048;-65
2022/04/27 16:44:02;;;;;;;7.22;6.75;;;;;;;16.81;48.64;102511.53;10503593;28;20045;-65
2022/04/27 16:49:05;;;;;;;7.45;6.80;;;;;;;16.01;49.34;102518.53;10501589;28;20463;-65
2022/04/27 16:54:07;;;;;;;7.55;6.72;;;;;;;16.53;48.37;102513.06;10503215;28;20056;-65
2022/04/27 16:59:10;;;;;;;6.35;5.72;;;;;;;16.43;50.36;102517.16;10502194;28;20057;-65
2022/04/27 17:04:12;;;;;;;6.03;4.65;;;;;;;16.20;51.25;102522.84;10502732;28;20041;-65
2022/04/27 17:09:14;;;;;;;7.97;4.82;;;;;;;15.80;51.63;102517.84;10502557;28;20048;-65
2022/04/27 17:14:17;;;;;;;5.57;4.70;;;;;;;15.60;51.80;102522.38;10502452;28;20048;-65
2022/04/27 17:19:19;;;;;;;4.47;4.03;;;;;;;15.37;53.02;102528.81;10502170;28;20049;-65
2022/04/27 17:24:22;;;;;;;5.90;4.22;;;;;;;14.80;53.54;102536.00;10500765;28;20052;-65
2022/04/27 17:29:24;;;;;;;7.55;4.00;;;;;;;15.27;52.52;102526.72;10499931;28;20049;-65
2022/04/27 17:34:26;;;;;;;4.07;3.40;;;;;;;15.33;54.47;102531.66;10501537;28;20048;-65
2022/04/27 17:39:29;;;;;;;5.00;4.25;;;;;;;14.77;54.40;102549.34;10500645;28;20052;-64
2022/04/27 17:44:31;;;;;;;6.10;4.10;;;;;;;14.02;54.82;102548.31;10501019;28;20064;-64
2022/04/27 17:49:34;;;;;;;8.80;3.83;;;;;;;14.46;55.20;102561.28;10501045;28;20052;-65
2022/04/27 17:54:36;;;;;;;5.53;3.45;;;;;;;13.90;56.13;102571.66;10500700;28;20059;-64
2022/04/27 17:59:40;;;;;;;8.77;3.65;;;;;;;13.99;56.62;102569.53;10457417;28;20068;-64
2022/04/27 18:04:43;;;;;;;3.83;3.28;;;;;;;13.75;55.96;102578.41;10459256;28;20052;-65
2022/04/27 18:09:45;;;;;;;6.18;4.07;;;;;;;13.16;59.11;102592.22;10458309;28;20488;-64
2022/04/27 18:14:48;;;;;;;8.55;5.88;;;;;;;13.09;58.29;102599.47;10458602;28;20045;-64
2022/04/27 18:19:52;;;;;;;5.78;3.58;;;;;;;13.30;59.89;102597.78;10458463;28;20049;-64
2022/04/27 18:24:54;;;;;;;11.15;4.05;;;;;;;12.81;61.13;102607.59;10458198;28;20044;-64
2022/04/27 18:29:57;;;;;;;8.45;3.80;;;;;;;12.52;61.94;102616.56;10458092;28;20056;-64
2022/04/27 18:34:59;;;;;;;5.60;4.18;;;;;;;12.20;62.97;102621.19;10456817;28;20050;-64
2022/04/27 18:40:02;;;;;;;9.23;3.95;;;;;;;12.09;63.91;102626.84;10456172;28;20045;-64
2022/04/27 18:50:43;;;;;;;7.00;4.38;;;;;;;11.88;63.29;102636.25;10406622;28;20060;-64
2022/04/27 18:55:45;;;;;;;5.72;3.50;;;;;;;11.79;64.43;102636.56;10457098;28;20052;-64
2022/04/27 19:00:47;;;;;;;8.02;3.75;;;;;;;11.75;65.53;102653.31;10457233;28;20077;-64
2022/04/27 19:05:50;;;;;;;8.55;4.22;;;;;;;11.61;65.65;102656.38;10456358;28;20539;-64
2022/04/27 19:10:52;;;;;;;12.68;4.63;;;;;;;11.20;66.56;102661.16;10457001;28;20052;-64
2022/04/27 19:15:55;;;;;;;6.35;3.45;;;;;;;11.34;66.55;102662.44;10455063;28;20131;-64
2022/04/27 19:20:57;;;;;;;6.85;3.80;;;;;;;11.05;67.07;102663.34;10456787;28;20468;-66
2022/04/27 19:26:05;;;;;;;10.35;4.45;;;;;;;11.12;68.16;102664.84;10455944;28;20049;-64
2022/04/27 19:31:07;;;;;;;10.95;4.82;;;;;;;10.96;67.71;102677.56;10456676;28;20057;-64
2022/04/27 19:36:10;;;;;;;9.18;4.40;;;;;;;10.78;69.33;102680.72;10456684;28;20048;-64
2022/04/27 19:41:13;;;;;;;12.73;4.80;;;;;;;10.36;70.71;102681.00;10454588;28;20586;-64
2022/04/27 19:46:20;;;;;;;9.38;5.43;;;;;;;10.47;71.01;102684.16;10455537;28;20480;-66
2022/04/27 19:51:23;;;;;;;12.77;6.18;;;;;;;10.28;71.67;102682.91;10458459;28;20053;-66
2022/04/27 19:56:26;;;;;;;8.38;5.95;;;;;;;10.20;72.55;102686.59;10462130;28;20136;-66
2022/04/27 20:01:29;;;;;;;12.70;6.43;;;;;;;10.05;73.31;102689.56;10463827;28;20052;-66
2022/04/27 20:06:33;;;;;;;12.98;6.15;;;;;;;10.45;69.70;102690.34;10463572;28;20083;-66
2022/04/27 20:11:36;;;;;;;12.98;6.60;;;;;;;10.02;73.10;102701.00;10463547;28;20059;-66
2022/04/27 20:16:39;;;;;;;14.02;7.40;;;;;;;9.85;74.49;102706.63;10462689;28;20427;-66
2022/04/27 20:21:41;;;;;;;12.75;8.98;;;;;;;9.85;74.84;102705.75;10462470;28;20049;-66
2022/04/27 20:26:44;;;;;;;10.23;9.23;;;;;;;9.73;76.22;102713.91;10462815;28;20056;-66
2022/04/27 20:31:46;;;;;;;17.02;14.45;;;;;;;9.37;78.95;102713.84;10477405;28;20408;-66
2022/04/27 20:36:48;;;;;;;18.77;16.17;;;;;;;9.34;78.66;102714.75;10461848;28;20479;-66
2022/04/27 20:41:51;;;;;;;16.42;14.10;;;;;;;9.39;77.46;102714.66;10462343;28;20056;-66
2022/04/27 20:46:53;;;;;;;19.42;17.83;;;;;;;9.17;79.35;102715.13;10461988;28;20049;-66
2022/04/27 20:52:04;;;;;;;21.38;19.08;;;;;;;9.19;79.49;102722.94;10461915;28;20059;-66
2022/04/27 20:57:07;;;;;;;23.10;21.40;;;;;;;9.25;78.79;102731.50;10461379;28;20053;-66
2022/04/27 21:02:09;;;;;;;24.85;23.13;;;;;;;9.04;80.46;102724.97;10460488;28;20056;-65
2022/04/27 21:07:12;;;;;;;33.08;30.30;;;;;;;8.90;80.90;102727.00;10459476;28;20484;-66
2022/04/27 21:12:16;;;;;;;34.53;32.42;;;;;;;8.97;80.62;102733.81;10493224;22;20053;-56
2022/04/27 21:17:19;;;;;;;39.65;36.75;;;;;;;8.69;82.39;102736.09;10501760;28;20044;-57
2022/04/27 21:22:21;;;;;;;43.58;41.08;;;;;;;8.49;83.71;102736.44;10502354;28;20055;-57
2022/04/27 21:27:24;;;;;;;54.05;49.90;;;;;;;8.25;84.92;102751.59;10500796;28;20059;-57
2022/04/27 21:32:26;;;;;;;62.85;59.15;;;;;;;8.03;87.76;102748.47;10499961;28;20065;-57
2022/04/27 21:37:28;;;;;;;77.75;73.13;;;;;;;7.91;88.69;102756.50;10500865;28;20049;-57
2022/04/27 21:42:31;;;;;;;91.97;86.57;;;;;;;7.84;89.32;102758.34;10501270;28;20059;-57
2022/04/27 21:47:33;;;;;;;98.82;92.82;;;;;;;7.76;90.13;102766.25;10500391;28;20409;-57
2022/04/27 21:52:35;;;;;;;103.20;97.68;;;;;;;7.58;91.42;102764.78;10500860;28;20052;-57
2022/04/27 21:57:38;;;;;;;111.82;105.65;;;;;;;7.50;92.40;102771.84;10500650;28;20049;-57
2022/04/27 22:02:44;;;;;;;119.90;113.47;;;;;;;7.19;92.88;102771.34;10499745;28;20419;-56
2022/04/27 22:07:48;;;;;;;147.90;140.10;;;;;;;7.35;93.23;102774.66;10500097;28;20048;-57
2022/04/27 22:12:50;;;;;;;157.57;149.27;;;;;;;7.36;93.94;102774.63;10499471;28;20059;-57
2022/04/27 22:17:52;;;;;;;163.93;155.23;;;;;;;7.39;92.25;102776.31;10499847;28;20063;-57
2022/04/27 22:22:55;;;;;;;178.38;169.43;;;;;;;7.22;93.96;102784.34;10499600;28;20049;-57
2022/04/27 22:27:57;;;;;;;196.30;186.43;;;;;;;7.18;93.85;102780.06;10499452;28;20114;-57
2022/04/27 22:32:59;;;;;;;206.13;196.10;;;;;;;6.88;97.50;102803.78;10498846;28;20403;-57
2022/04/27 22:38:02;;;;;;;212.27;201.90;;;;;;;6.83;97.95;102805.56;10498643;28;20510;-56
2022/04/27 22:43:05;;;;;;;218.77;207.70;;;;;;;6.72;98.43;102804.81;10498368;28;20411;-56
2022/04/27 22:48:08;;;;;;;229.52;218.63;;;;;;;6.62;98.34;102814.47;10498335;28;20508;-56
2022/04/27 22:53:10;;;;;;;251.13;239.20;;;;;;;6.69;97.86;102812.63;10498252;28;20399;-56
2022/04/27 22:58:13;;;;;;;244.60;232.88;;;;;;;6.68;97.58;102823.94;10498127;28;20523;-57
2022/04/27 23:03:17;;;;;;;256.50;243.77;;;;;;;6.49;99.38;102829.31;10480852;28;20045;-54
2022/04/27 23:13:43;;;;;;;281.25;267.25;;;;;;;6.24;100.00;102832.97;10498014;28;20053;-56
2022/04/27 23:18:47;;;;;;;278.20;265.13;;;;;;;6.30;99.23;102827.69;10498362;28;20060;-56
2022/04/27 23:23:50;;;;;;;288.23;274.58;;;;;;;6.02;100.00;102827.00;10498220;28;20044;-56
2022/04/27 23:28:53;;;;;;;293.65;279.63;;;;;;;6.02;100.00;102830.50;10504753;28;20139;-56
2022/04/27 23:33:55;;;;;;;291.48;277.48;;;;;;;5.90;100.00;102839.19;10506413;28;20060;-56